sensor_id;sensor_type;location;lat;lon;timestamp;P1;durP1;ratioP1;P2;durP2;ratioP2
7031;SDS011;3557;48.880;8.328;2022-07-10T00:00:31;3.20;;;2.90;;
7031;SDS011;3557;48.880;8.328;2022-07-10T00:02:59;2.78;;;2.50;;
7031;SDS011;3557;48.880;8.328;2022-07-10T00:05:26;3.05;;;2.53;;
7031;SDS011;3557;48.880;8.328;2022-07-10T00:07:54;3.20;;;2.60;;
7031;SDS011;3557;48.880;8.328;2022-07-10T00:10:22;3.60;;;2.70;;
7031;SDS011;3557;48.880;8.328;2022-07-10T00:12:51;2.83;;;2.58;;
7031;SDS011;3557;48.880;8.328;2022-07-10T00:15:18;2.78;;;2.58;;
7031;SDS011;3557;48.880;8.328;2022-07-10T00:17:45;3.20;;;2.67;;
7031;SDS011;3557;48.880;8.328;2022-07-10T00:20:13;3.38;;;2.50;;
7031;SDS011;3557;48.880;8.328;2022-07-10T00:22:41;2.95;;;2.55;;
7031;SDS011;3557;48.880;8.328;2022-07-10T00:25:10;2.63;;;2.42;;
7031;SDS011;3557;48.880;8.328;2022-07-10T00:27:38;2.88;;;2.65;;
7031;SDS011;3557;48.880;8.328;2022-07-10T00:30:08;2.70;;;2.45;;
7031;SDS011;3557;48.880;8.328;2022-07-10T00:32:37;2.97;;;2.55;;
7031;SDS011;3557;48.880;8.328;2022-07-10T00:35:05;3.10;;;2.80;;
7031;SDS011;3557;48.880;8.328;2022-07-10T00:37:33;3.20;;;2.90;;
7031;SDS011;3557;48.880;8.328;2022-07-10T00:40:01;3.03;;;2.35;;
7031;SDS011;3557;48.880;8.328;2022-07-10T00:42:30;2.60;;;2.40;;
7031;SDS011;3557;48.880;8.328;2022-07-10T00:44:58;4.10;;;2.92;;
7031;SDS011;3557;48.880;8.328;2022-07-10T00:47:28;4.47;;;2.78;;
7031;SDS011;3557;48.880;8.328;2022-07-10T00:49:56;3.10;;;2.80;;
7031;SDS011;3557;48.880;8.328;2022-07-10T00:52:23;3.25;;;2.95;;
7031;SDS011;3557;48.880;8.328;2022-07-10T00:54:50;2.80;;;2.60;;
7031;SDS011;3557;48.880;8.328;2022-07-10T00:57:18;3.13;;;2.80;;
7031;SDS011;3557;48.880;8.328;2022-07-10T00:59:47;4.38;;;2.70;;
7031;SDS011;3557;48.880;8.328;2022-07-10T01:02:15;3.00;;;2.60;;
7031;SDS011;3557;48.880;8.328;2022-07-10T01:04:44;3.05;;;2.63;;
7031;SDS011;3557;48.880;8.328;2022-07-10T01:07:12;3.33;;;2.70;;
7031;SDS011;3557;48.880;8.328;2022-07-10T01:09:41;3.63;;;2.90;;
7031;SDS011;3557;48.880;8.328;2022-07-10T01:12:08;3.00;;;2.60;;
7031;SDS011;3557;48.880;8.328;2022-07-10T01:14:38;6.28;;;2.55;;
7031;SDS011;3557;48.880;8.328;2022-07-10T01:17:06;3.58;;;2.63;;
7031;SDS011;3557;48.880;8.328;2022-07-10T01:19:34;2.55;;;2.35;;
7031;SDS011;3557;48.880;8.328;2022-07-10T01:22:03;2.78;;;2.53;;
7031;SDS011;3557;48.880;8.328;2022-07-10T01:24:30;3.35;;;3.03;;
7031;SDS011;3557;48.880;8.328;2022-07-10T01:26:58;5.28;;;3.05;;
7031;SDS011;3557;48.880;8.328;2022-07-10T01:29:25;3.40;;;3.10;;
7031;SDS011;3557;48.880;8.328;2022-07-10T01:31:53;3.13;;;2.67;;
7031;SDS011;3557;48.880;8.328;2022-07-10T01:34:19;3.55;;;3.20;;
7031;SDS011;3557;48.880;8.328;2022-07-10T01:36:47;4.07;;;2.92;;
7031;SDS011;3557;48.880;8.328;2022-07-10T01:39:16;3.05;;;2.60;;
7031;SDS011;3557;48.880;8.328;2022-07-10T01:41:43;3.22;;;2.92;;
7031;SDS011;3557;48.880;8.328;2022-07-10T01:44:11;3.20;;;2.72;;
7031;SDS011;3557;48.880;8.328;2022-07-10T01:46:42;2.90;;;2.60;;
7031;SDS011;3557;48.880;8.328;2022-07-10T01:49:11;3.88;;;2.67;;
7031;SDS011;3557;48.880;8.328;2022-07-10T01:51:38;2.75;;;2.45;;
7031;SDS011;3557;48.880;8.328;2022-07-10T01:54:05;3.25;;;2.40;;
7031;SDS011;3557;48.880;8.328;2022-07-10T01:56:34;3.30;;;2.50;;
7031;SDS011;3557;48.880;8.328;2022-07-10T01:59:01;2.72;;;2.50;;
7031;SDS011;3557;48.880;8.328;2022-07-10T02:01:28;3.78;;;2.22;;
7031;SDS011;3557;48.880;8.328;2022-07-10T02:03:56;5.15;;;2.10;;
7031;SDS011;3557;48.880;8.328;2022-07-10T02:06:41;3.08;;;2.33;;
7031;SDS011;3557;48.880;8.328;2022-07-10T02:09:08;4.03;;;2.10;;
7031;SDS011;3557;48.880;8.328;2022-07-10T02:11:37;3.88;;;2.00;;
7031;SDS011;3557;48.880;8.328;2022-07-10T02:14:04;3.50;;;2.03;;
7031;SDS011;3557;48.880;8.328;2022-07-10T02:16:31;3.30;;;1.90;;
7031;SDS011;3557;48.880;8.328;2022-07-10T02:18:58;3.33;;;1.98;;
7031;SDS011;3557;48.880;8.328;2022-07-10T02:21:25;2.13;;;1.92;;
7031;SDS011;3557;48.880;8.328;2022-07-10T02:23:52;2.97;;;2.00;;
7031;SDS011;3557;48.880;8.328;2022-07-10T02:26:19;3.70;;;2.10;;
7031;SDS011;3557;48.880;8.328;2022-07-10T02:28:48;3.92;;;2.30;;
7031;SDS011;3557;48.880;8.328;2022-07-10T02:31:15;2.38;;;2.00;;
7031;SDS011;3557;48.880;8.328;2022-07-10T02:33:43;3.10;;;2.17;;
7031;SDS011;3557;48.880;8.328;2022-07-10T02:36:10;2.67;;;2.10;;
7031;SDS011;3557;48.880;8.328;2022-07-10T02:38:37;3.95;;;1.98;;
7031;SDS011;3557;48.880;8.328;2022-07-10T02:41:04;3.28;;;1.73;;
7031;SDS011;3557;48.880;8.328;2022-07-10T02:43:31;2.70;;;2.00;;
7031;SDS011;3557;48.880;8.328;2022-07-10T02:46:00;3.17;;;2.00;;
7031;SDS011;3557;48.880;8.328;2022-07-10T02:48:28;3.67;;;1.92;;
7031;SDS011;3557;48.880;8.328;2022-07-10T02:50:55;2.97;;;1.80;;
7031;SDS011;3557;48.880;8.328;2022-07-10T02:53:22;3.17;;;2.00;;
7031;SDS011;3557;48.880;8.328;2022-07-10T02:55:49;4.15;;;2.10;;
7031;SDS011;3557;48.880;8.328;2022-07-10T02:58:16;2.33;;;1.80;;
7031;SDS011;3557;48.880;8.328;2022-07-10T03:00:44;3.95;;;1.98;;
7031;SDS011;3557;48.880;8.328;2022-07-10T03:03:13;3.78;;;1.88;;
7031;SDS011;3557;48.880;8.328;2022-07-10T03:05:42;4.03;;;2.05;;
7031;SDS011;3557;48.880;8.328;2022-07-10T03:08:09;3.53;;;2.40;;
7031;SDS011;3557;48.880;8.328;2022-07-10T03:10:37;1.70;;;1.60;;
7031;SDS011;3557;48.880;8.328;2022-07-10T03:13:05;6.30;;;2.10;;
7031;SDS011;3557;48.880;8.328;2022-07-10T03:15:33;3.47;;;2.00;;
7031;SDS011;3557;48.880;8.328;2022-07-10T03:18:00;3.38;;;1.80;;
7031;SDS011;3557;48.880;8.328;2022-07-10T03:20:29;3.13;;;1.90;;
7031;SDS011;3557;48.880;8.328;2022-07-10T03:22:56;3.45;;;1.90;;
7031;SDS011;3557;48.880;8.328;2022-07-10T03:25:23;2.90;;;1.90;;
7031;SDS011;3557;48.880;8.328;2022-07-10T03:27:50;5.25;;;2.20;;
7031;SDS011;3557;48.880;8.328;2022-07-10T03:30:17;3.90;;;1.73;;
7031;SDS011;3557;48.880;8.328;2022-07-10T03:32:45;2.22;;;1.90;;
7031;SDS011;3557;48.880;8.328;2022-07-10T03:35:12;2.97;;;1.88;;
7031;SDS011;3557;48.880;8.328;2022-07-10T03:37:41;3.90;;;1.95;;
7031;SDS011;3557;48.880;8.328;2022-07-10T03:40:08;2.88;;;1.85;;
7031;SDS011;3557;48.880;8.328;2022-07-10T03:42:36;3.33;;;1.90;;
7031;SDS011;3557;48.880;8.328;2022-07-10T03:45:04;2.53;;;1.90;;
7031;SDS011;3557;48.880;8.328;2022-07-10T03:47:32;3.50;;;1.90;;
7031;SDS011;3557;48.880;8.328;2022-07-10T03:49:59;2.90;;;2.05;;
7031;SDS011;3557;48.880;8.328;2022-07-10T03:52:27;2.90;;;1.98;;
7031;SDS011;3557;48.880;8.328;2022-07-10T03:54:56;5.28;;;1.83;;
7031;SDS011;3557;48.880;8.328;2022-07-10T03:57:23;4.07;;;2.00;;
7031;SDS011;3557;48.880;8.328;2022-07-10T04:00:08;3.60;;;1.90;;
7031;SDS011;3557;48.880;8.328;2022-07-10T04:02:39;2.88;;;1.85;;
7031;SDS011;3557;48.880;8.328;2022-07-10T04:05:07;2.35;;;1.73;;
7031;SDS011;3557;48.880;8.328;2022-07-10T04:07:35;2.92;;;1.90;;
7031;SDS011;3557;48.880;8.328;2022-07-10T04:10:05;5.28;;;1.90;;
7031;SDS011;3557;48.880;8.328;2022-07-10T04:12:34;3.58;;;1.80;;
7031;SDS011;3557;48.880;8.328;2022-07-10T04:15:01;4.25;;;1.67;;
7031;SDS011;3557;48.880;8.328;2022-07-10T04:17:29;3.72;;;1.70;;
7031;SDS011;3557;48.880;8.328;2022-07-10T04:19:57;3.63;;;1.95;;
7031;SDS011;3557;48.880;8.328;2022-07-10T04:22:24;6.50;;;2.00;;
7031;SDS011;3557;48.880;8.328;2022-07-10T04:24:52;5.35;;;1.80;;
7031;SDS011;3557;48.880;8.328;2022-07-10T04:27:21;3.40;;;1.80;;
7031;SDS011;3557;48.880;8.328;2022-07-10T04:29:48;2.95;;;1.70;;
7031;SDS011;3557;48.880;8.328;2022-07-10T04:32:16;2.95;;;1.70;;
7031;SDS011;3557;48.880;8.328;2022-07-10T04:34:43;3.92;;;1.83;;
7031;SDS011;3557;48.880;8.328;2022-07-10T04:37:10;3.95;;;1.80;;
7031;SDS011;3557;48.880;8.328;2022-07-10T04:39:37;2.30;;;1.65;;
7031;SDS011;3557;48.880;8.328;2022-07-10T04:42:05;2.40;;;1.70;;
7031;SDS011;3557;48.880;8.328;2022-07-10T04:44:35;5.28;;;1.80;;
7031;SDS011;3557;48.880;8.328;2022-07-10T04:47:03;2.78;;;1.80;;
7031;SDS011;3557;48.880;8.328;2022-07-10T04:49:31;3.72;;;1.58;;
7031;SDS011;3557;48.880;8.328;2022-07-10T04:51:58;2.25;;;1.70;;
7031;SDS011;3557;48.880;8.328;2022-07-10T04:54:26;2.95;;;1.70;;
7031;SDS011;3557;48.880;8.328;2022-07-10T04:56:53;4.13;;;1.80;;
7031;SDS011;3557;48.880;8.328;2022-07-10T04:59:20;2.97;;;1.60;;
7031;SDS011;3557;48.880;8.328;2022-07-10T05:01:49;1.88;;;1.60;;
7031;SDS011;3557;48.880;8.328;2022-07-10T05:04:16;5.20;;;1.85;;
7031;SDS011;3557;48.880;8.328;2022-07-10T05:06:43;4.53;;;1.90;;
7031;SDS011;3557;48.880;8.328;2022-07-10T05:09:10;5.30;;;1.85;;
7031;SDS011;3557;48.880;8.328;2022-07-10T05:11:37;3.28;;;1.98;;
7031;SDS011;3557;48.880;8.328;2022-07-10T05:14:04;4.80;;;2.08;;
7031;SDS011;3557;48.880;8.328;2022-07-10T05:16:31;3.90;;;1.90;;
7031;SDS011;3557;48.880;8.328;2022-07-10T05:19:00;4.03;;;2.40;;
7031;SDS011;3557;48.880;8.328;2022-07-10T05:21:27;4.28;;;2.08;;
7031;SDS011;3557;48.880;8.328;2022-07-10T05:23:54;2.85;;;1.80;;
7031;SDS011;3557;48.880;8.328;2022-07-10T05:26:21;2.78;;;1.77;;
7031;SDS011;3557;48.880;8.328;2022-07-10T05:28:48;3.50;;;1.80;;
7031;SDS011;3557;48.880;8.328;2022-07-10T05:31:16;6.43;;;1.60;;
7031;SDS011;3557;48.880;8.328;2022-07-10T05:33:43;5.00;;;1.80;;
7031;SDS011;3557;48.880;8.328;2022-07-10T05:36:11;3.92;;;1.90;;
7031;SDS011;3557;48.880;8.328;2022-07-10T05:38:38;6.07;;;1.60;;
7031;SDS011;3557;48.880;8.328;2022-07-10T05:41:06;2.85;;;1.80;;
7031;SDS011;3557;48.880;8.328;2022-07-10T05:43:33;6.95;;;1.75;;
7031;SDS011;3557;48.880;8.328;2022-07-10T05:46:00;3.70;;;1.80;;
7031;SDS011;3557;48.880;8.328;2022-07-10T05:48:27;2.90;;;1.70;;
7031;SDS011;3557;48.880;8.328;2022-07-10T05:50:55;3.38;;;1.80;;
7031;SDS011;3557;48.880;8.328;2022-07-10T05:53:23;2.42;;;1.73;;
7031;SDS011;3557;48.880;8.328;2022-07-10T05:55:50;2.92;;;1.90;;
7031;SDS011;3557;48.880;8.328;2022-07-10T05:58:18;3.58;;;1.77;;
7031;SDS011;3557;48.880;8.328;2022-07-10T06:00:45;2.97;;;1.65;;
7031;SDS011;3557;48.880;8.328;2022-07-10T06:03:14;2.22;;;1.60;;
7031;SDS011;3557;48.880;8.328;2022-07-10T06:05:41;2.85;;;1.70;;
7031;SDS011;3557;48.880;8.328;2022-07-10T06:08:10;2.60;;;1.80;;
7031;SDS011;3557;48.880;8.328;2022-07-10T06:10:39;3.05;;;1.48;;
7031;SDS011;3557;48.880;8.328;2022-07-10T06:13:09;4.63;;;1.85;;
7031;SDS011;3557;48.880;8.328;2022-07-10T06:15:36;5.03;;;1.77;;
7031;SDS011;3557;48.880;8.328;2022-07-10T06:18:03;2.90;;;1.50;;
7031;SDS011;3557;48.880;8.328;2022-07-10T06:20:30;2.80;;;1.60;;
7031;SDS011;3557;48.880;8.328;2022-07-10T06:22:57;3.15;;;1.63;;
7031;SDS011;3557;48.880;8.328;2022-07-10T06:25:25;3.97;;;1.83;;
7031;SDS011;3557;48.880;8.328;2022-07-10T06:27:53;2.42;;;1.73;;
7031;SDS011;3557;48.880;8.328;2022-07-10T06:30:20;5.03;;;1.75;;
7031;SDS011;3557;48.880;8.328;2022-07-10T06:32:47;5.25;;;2.00;;
7031;SDS011;3557;48.880;8.328;2022-07-10T06:35:14;4.18;;;1.92;;
7031;SDS011;3557;48.880;8.328;2022-07-10T06:37:42;4.72;;;1.80;;
7031;SDS011;3557;48.880;8.328;2022-07-10T06:40:09;3.50;;;1.70;;
7031;SDS011;3557;48.880;8.328;2022-07-10T06:42:39;4.03;;;1.65;;
7031;SDS011;3557;48.880;8.328;2022-07-10T06:45:10;2.92;;;1.77;;
7031;SDS011;3557;48.880;8.328;2022-07-10T06:47:38;3.17;;;1.60;;
7031;SDS011;3557;48.880;8.328;2022-07-10T06:50:25;3.00;;;1.58;;
7031;SDS011;3557;48.880;8.328;2022-07-10T06:52:54;6.05;;;1.63;;
7031;SDS011;3557;48.880;8.328;2022-07-10T06:55:21;5.88;;;1.70;;
7031;SDS011;3557;48.880;8.328;2022-07-10T06:57:50;5.32;;;1.75;;
7031;SDS011;3557;48.880;8.328;2022-07-10T07:00:18;3.50;;;1.63;;
7031;SDS011;3557;48.880;8.328;2022-07-10T07:02:45;3.80;;;1.70;;
7031;SDS011;3557;48.880;8.328;2022-07-10T07:05:12;5.15;;;1.60;;
7031;SDS011;3557;48.880;8.328;2022-07-10T07:07:40;5.50;;;1.73;;
7031;SDS011;3557;48.880;8.328;2022-07-10T07:10:08;4.43;;;2.00;;
7031;SDS011;3557;48.880;8.328;2022-07-10T07:12:36;2.72;;;1.77;;
7031;SDS011;3557;48.880;8.328;2022-07-10T07:15:04;2.95;;;1.70;;
7031;SDS011;3557;48.880;8.328;2022-07-10T07:17:34;3.50;;;1.70;;
7031;SDS011;3557;48.880;8.328;2022-07-10T07:20:21;4.95;;;1.60;;
7031;SDS011;3557;48.880;8.328;2022-07-10T07:23:08;4.63;;;1.70;;
7031;SDS011;3557;48.880;8.328;2022-07-10T07:25:38;5.40;;;1.75;;
7031;SDS011;3557;48.880;8.328;2022-07-10T07:28:07;7.75;;;1.83;;
7031;SDS011;3557;48.880;8.328;2022-07-10T07:30:35;3.67;;;1.95;;
7031;SDS011;3557;48.880;8.328;2022-07-10T07:33:04;4.28;;;1.80;;
7031;SDS011;3557;48.880;8.328;2022-07-10T07:35:31;2.35;;;1.65;;
7031;SDS011;3557;48.880;8.328;2022-07-10T07:37:58;2.25;;;1.60;;
7031;SDS011;3557;48.880;8.328;2022-07-10T07:40:25;3.40;;;1.80;;
7031;SDS011;3557;48.880;8.328;2022-07-10T07:42:52;3.30;;;1.75;;
7031;SDS011;3557;48.880;8.328;2022-07-10T07:45:20;4.65;;;1.90;;
7031;SDS011;3557;48.880;8.328;2022-07-10T07:47:48;4.60;;;1.80;;
7031;SDS011;3557;48.880;8.328;2022-07-10T07:50:20;5.05;;;1.70;;
7031;SDS011;3557;48.880;8.328;2022-07-10T07:52:48;3.67;;;1.70;;
7031;SDS011;3557;48.880;8.328;2022-07-10T07:55:16;2.78;;;1.60;;
7031;SDS011;3557;48.880;8.328;2022-07-10T07:57:44;3.63;;;1.70;;
7031;SDS011;3557;48.880;8.328;2022-07-10T08:00:13;3.03;;;1.60;;
7031;SDS011;3557;48.880;8.328;2022-07-10T08:02:42;1.83;;;1.30;;
7031;SDS011;3557;48.880;8.328;2022-07-10T08:05:10;2.33;;;1.50;;
7031;SDS011;3557;48.880;8.328;2022-07-10T08:07:40;2.83;;;1.63;;
7031;SDS011;3557;48.880;8.328;2022-07-10T08:10:09;3.00;;;1.50;;
7031;SDS011;3557;48.880;8.328;2022-07-10T08:12:38;2.55;;;1.52;;
7031;SDS011;3557;48.880;8.328;2022-07-10T08:15:06;2.97;;;1.50;;
7031;SDS011;3557;48.880;8.328;2022-07-10T08:17:34;4.47;;;1.58;;
7031;SDS011;3557;48.880;8.328;2022-07-10T08:20:02;3.72;;;1.60;;
7031;SDS011;3557;48.880;8.328;2022-07-10T08:22:30;1.40;;;1.30;;
7031;SDS011;3557;48.880;8.328;2022-07-10T08:24:59;4.35;;;1.67;;
7031;SDS011;3557;48.880;8.328;2022-07-10T08:27:26;1.85;;;1.40;;
7031;SDS011;3557;48.880;8.328;2022-07-10T08:29:53;3.78;;;1.70;;
7031;SDS011;3557;48.880;8.328;2022-07-10T08:32:20;2.75;;;1.60;;
7031;SDS011;3557;48.880;8.328;2022-07-10T08:34:47;2.85;;;1.50;;
7031;SDS011;3557;48.880;8.328;2022-07-10T08:37:15;2.83;;;1.50;;
7031;SDS011;3557;48.880;8.328;2022-07-10T08:39:42;3.13;;;1.70;;
7031;SDS011;3557;48.880;8.328;2022-07-10T08:42:10;2.50;;;1.48;;
7031;SDS011;3557;48.880;8.328;2022-07-10T08:44:38;2.95;;;1.60;;
7031;SDS011;3557;48.880;8.328;2022-07-10T08:47:05;2.40;;;1.30;;
7031;SDS011;3557;48.880;8.328;2022-07-10T08:49:33;4.25;;;1.70;;
7031;SDS011;3557;48.880;8.328;2022-07-10T08:52:02;4.22;;;1.40;;
7031;SDS011;3557;48.880;8.328;2022-07-10T08:54:32;4.70;;;1.77;;
7031;SDS011;3557;48.880;8.328;2022-07-10T08:57:01;3.28;;;1.40;;
7031;SDS011;3557;48.880;8.328;2022-07-10T08:59:31;5.15;;;1.60;;
7031;SDS011;3557;48.880;8.328;2022-07-10T09:01:58;2.60;;;1.40;;
7031;SDS011;3557;48.880;8.328;2022-07-10T09:04:26;4.97;;;1.63;;
7031;SDS011;3557;48.880;8.328;2022-07-10T09:06:54;3.47;;;1.80;;
7031;SDS011;3557;48.880;8.328;2022-07-10T09:09:21;3.10;;;1.65;;
7031;SDS011;3557;48.880;8.328;2022-07-10T09:11:54;3.13;;;1.48;;
7031;SDS011;3557;48.880;8.328;2022-07-10T09:14:23;5.47;;;1.70;;
7031;SDS011;3557;48.880;8.328;2022-07-10T09:16:54;3.10;;;1.60;;
7031;SDS011;3557;48.880;8.328;2022-07-10T09:19:22;5.03;;;1.70;;
7031;SDS011;3557;48.880;8.328;2022-07-10T09:21:51;4.00;;;1.60;;
7031;SDS011;3557;48.880;8.328;2022-07-10T09:24:19;3.15;;;1.58;;
7031;SDS011;3557;48.880;8.328;2022-07-10T09:26:57;2.17;;;1.52;;
7031;SDS011;3557;48.880;8.328;2022-07-10T09:29:28;4.25;;;1.52;;
7031;SDS011;3557;48.880;8.328;2022-07-10T09:31:57;4.13;;;1.50;;
7031;SDS011;3557;48.880;8.328;2022-07-10T09:34:35;1.92;;;1.40;;
7031;SDS011;3557;48.880;8.328;2022-07-10T09:37:17;3.30;;;1.45;;
7031;SDS011;3557;48.880;8.328;2022-07-10T09:39:55;2.33;;;1.40;;
7031;SDS011;3557;48.880;8.328;2022-07-10T09:42:25;3.50;;;1.45;;
7031;SDS011;3557;48.880;8.328;2022-07-10T09:47:54;3.42;;;1.40;;
7031;SDS011;3557;48.880;8.328;2022-07-10T09:50:24;3.50;;;1.30;;
7031;SDS011;3557;48.880;8.328;2022-07-10T09:52:55;2.25;;;1.40;;
7031;SDS011;3557;48.880;8.328;2022-07-10T09:55:24;2.10;;;1.30;;
7031;SDS011;3557;48.880;8.328;2022-07-10T09:57:55;1.90;;;1.23;;
7031;SDS011;3557;48.880;8.328;2022-07-10T10:00:24;3.97;;;1.20;;
7031;SDS011;3557;48.880;8.328;2022-07-10T10:02:55;2.22;;;1.30;;
7031;SDS011;3557;48.880;8.328;2022-07-10T10:05:28;2.92;;;1.20;;
7031;SDS011;3557;48.880;8.328;2022-07-10T10:08:04;4.07;;;1.10;;
7031;SDS011;3557;48.880;8.328;2022-07-10T10:10:37;4.03;;;1.42;;
7031;SDS011;3557;48.880;8.328;2022-07-10T10:13:12;2.03;;;1.20;;
7031;SDS011;3557;48.880;8.328;2022-07-10T10:15:44;2.97;;;1.40;;
7031;SDS011;3557;48.880;8.328;2022-07-10T10:18:16;1.55;;;1.20;;
7031;SDS011;3557;48.880;8.328;2022-07-10T10:20:45;1.98;;;1.15;;
7031;SDS011;3557;48.880;8.328;2022-07-10T10:23:13;2.28;;;0.93;;
7031;SDS011;3557;48.880;8.328;2022-07-10T10:25:43;2.50;;;1.02;;
7031;SDS011;3557;48.880;8.328;2022-07-10T10:28:11;1.98;;;1.30;;
7031;SDS011;3557;48.880;8.328;2022-07-10T10:30:40;1.20;;;1.10;;
7031;SDS011;3557;48.880;8.328;2022-07-10T10:39:13;2.55;;;1.30;;
7031;SDS011;3557;48.880;8.328;2022-07-10T10:41:44;2.80;;;1.30;;
7031;SDS011;3557;48.880;8.328;2022-07-10T10:44:24;2.22;;;1.10;;
7031;SDS011;3557;48.880;8.328;2022-07-10T10:47:00;5.28;;;1.50;;
7031;SDS011;3557;48.880;8.328;2022-07-10T10:49:50;2.63;;;1.20;;
7031;SDS011;3557;48.880;8.328;2022-07-10T10:52:26;2.00;;;1.30;;
7031;SDS011;3557;48.880;8.328;2022-07-10T10:55:04;2.28;;;1.30;;
7031;SDS011;3557;48.880;8.328;2022-07-10T10:57:40;3.30;;;1.30;;
7031;SDS011;3557;48.880;8.328;2022-07-10T11:00:13;1.52;;;1.20;;
7031;SDS011;3557;48.880;8.328;2022-07-10T11:03:14;2.80;;;1.23;;
7031;SDS011;3557;48.880;8.328;2022-07-10T11:05:48;1.30;;;0.93;;
7031;SDS011;3557;48.880;8.328;2022-07-10T11:08:38;2.65;;;1.40;;
7031;SDS011;3557;48.880;8.328;2022-07-10T11:14:05;2.20;;;1.25;;
7031;SDS011;3557;48.880;8.328;2022-07-10T11:16:35;1.90;;;1.40;;
7031;SDS011;3557;48.880;8.328;2022-07-10T11:19:04;2.20;;;1.10;;
7031;SDS011;3557;48.880;8.328;2022-07-10T11:21:45;1.48;;;1.10;;
7031;SDS011;3557;48.880;8.328;2022-07-10T11:24:29;2.45;;;1.10;;
7031;SDS011;3557;48.880;8.328;2022-07-10T11:27:11;2.55;;;2.00;;
7031;SDS011;3557;48.880;8.328;2022-07-10T11:29:58;2.38;;;1.40;;
7031;SDS011;3557;48.880;8.328;2022-07-10T11:32:26;3.08;;;1.60;;
7031;SDS011;3557;48.880;8.328;2022-07-10T11:34:55;2.35;;;2.10;;
7031;SDS011;3557;48.880;8.328;2022-07-10T11:37:23;6.43;;;3.08;;
7031;SDS011;3557;48.880;8.328;2022-07-10T11:40:07;3.67;;;1.92;;
7031;SDS011;3557;48.880;8.328;2022-07-10T11:42:51;3.50;;;1.10;;
7031;SDS011;3557;48.880;8.328;2022-07-10T11:47:54;2.22;;;1.20;;
7031;SDS011;3557;48.880;8.328;2022-07-10T11:50:22;2.30;;;1.08;;
7031;SDS011;3557;48.880;8.328;2022-07-10T11:52:51;2.30;;;1.05;;
7031;SDS011;3557;48.880;8.328;2022-07-10T11:55:19;2.00;;;1.02;;
7031;SDS011;3557;48.880;8.328;2022-07-10T11:57:48;1.75;;;1.20;;
7031;SDS011;3557;48.880;8.328;2022-07-10T12:00:25;2.53;;;1.25;;
7031;SDS011;3557;48.880;8.328;2022-07-10T12:02:55;1.75;;;1.08;;
7031;SDS011;3557;48.880;8.328;2022-07-10T12:05:30;1.92;;;1.35;;
7031;SDS011;3557;48.880;8.328;2022-07-10T12:08:00;1.75;;;1.10;;
7031;SDS011;3557;48.880;8.328;2022-07-10T12:10:28;4.70;;;1.48;;
7031;SDS011;3557;48.880;8.328;2022-07-10T12:13:02;3.90;;;1.30;;
7031;SDS011;3557;48.880;8.328;2022-07-10T12:15:34;3.22;;;1.20;;
7031;SDS011;3557;48.880;8.328;2022-07-10T12:18:03;2.22;;;1.10;;
7031;SDS011;3557;48.880;8.328;2022-07-10T12:20:32;2.28;;;1.08;;
7031;SDS011;3557;48.880;8.328;2022-07-10T12:23:00;2.22;;;1.30;;
7031;SDS011;3557;48.880;8.328;2022-07-10T12:25:27;1.42;;;1.02;;
7031;SDS011;3557;48.880;8.328;2022-07-10T12:27:55;3.10;;;1.13;;
7031;SDS011;3557;48.880;8.328;2022-07-10T12:30:23;2.38;;;1.60;;
7031;SDS011;3557;48.880;8.328;2022-07-10T12:33:09;2.60;;;1.33;;
7031;SDS011;3557;48.880;8.328;2022-07-10T12:35:48;3.20;;;1.50;;
7031;SDS011;3557;48.880;8.328;2022-07-10T12:38:19;2.92;;;1.40;;
7031;SDS011;3557;48.880;8.328;2022-07-10T12:40:47;3.67;;;1.27;;
7031;SDS011;3557;48.880;8.328;2022-07-10T12:43:27;2.65;;;1.20;;
7031;SDS011;3557;48.880;8.328;2022-07-10T12:46:07;2.38;;;1.20;;
7031;SDS011;3557;48.880;8.328;2022-07-10T12:48:36;2.17;;;1.00;;
7031;SDS011;3557;48.880;8.328;2022-07-10T12:51:21;2.67;;;1.45;;
7031;SDS011;3557;48.880;8.328;2022-07-10T12:53:51;1.90;;;1.20;;
7031;SDS011;3557;48.880;8.328;2022-07-10T12:56:32;2.13;;;1.00;;
7031;SDS011;3557;48.880;8.328;2022-07-10T12:59:01;4.88;;;1.15;;
7031;SDS011;3557;48.880;8.328;2022-07-10T13:01:40;4.30;;;1.00;;
7031;SDS011;3557;48.880;8.328;2022-07-10T13:04:09;2.17;;;1.20;;
7031;SDS011;3557;48.880;8.328;2022-07-10T13:06:37;2.17;;;0.98;;
7031;SDS011;3557;48.880;8.328;2022-07-10T13:09:19;2.75;;;1.15;;
7031;SDS011;3557;48.880;8.328;2022-07-10T13:11:49;2.10;;;1.20;;
7031;SDS011;3557;48.880;8.328;2022-07-10T13:14:17;4.90;;;1.40;;
7031;SDS011;3557;48.880;8.328;2022-07-10T13:16:44;2.15;;;1.02;;
7031;SDS011;3557;48.880;8.328;2022-07-10T13:19:12;4.07;;;1.30;;
7031;SDS011;3557;48.880;8.328;2022-07-10T13:21:39;1.98;;;1.00;;
7031;SDS011;3557;48.880;8.328;2022-07-10T13:24:06;2.35;;;1.10;;
7031;SDS011;3557;48.880;8.328;2022-07-10T13:26:35;3.58;;;2.25;;
7031;SDS011;3557;48.880;8.328;2022-07-10T13:29:02;2.33;;;1.30;;
7031;SDS011;3557;48.880;8.328;2022-07-10T13:31:29;1.80;;;1.10;;
7031;SDS011;3557;48.880;8.328;2022-07-10T13:33:56;2.70;;;1.10;;
7031;SDS011;3557;48.880;8.328;2022-07-10T13:36:23;2.55;;;1.27;;
7031;SDS011;3557;48.880;8.328;2022-07-10T13:38:50;2.60;;;1.30;;
7031;SDS011;3557;48.880;8.328;2022-07-10T13:41:18;2.03;;;1.20;;
7031;SDS011;3557;48.880;8.328;2022-07-10T13:43:47;1.88;;;1.20;;
7031;SDS011;3557;48.880;8.328;2022-07-10T13:46:14;4.15;;;2.00;;
7031;SDS011;3557;48.880;8.328;2022-07-10T13:48:41;2.42;;;1.33;;
7031;SDS011;3557;48.880;8.328;2022-07-10T13:51:08;2.95;;;1.20;;
7031;SDS011;3557;48.880;8.328;2022-07-10T13:53:35;3.03;;;1.38;;
7031;SDS011;3557;48.880;8.328;2022-07-10T13:56:04;1.73;;;1.20;;
7031;SDS011;3557;48.880;8.328;2022-07-10T13:58:33;5.07;;;1.70;;
7031;SDS011;3557;48.880;8.328;2022-07-10T14:01:02;1.65;;;1.10;;
7031;SDS011;3557;48.880;8.328;2022-07-10T14:03:30;5.32;;;1.50;;
7031;SDS011;3557;48.880;8.328;2022-07-10T14:05:57;2.08;;;1.30;;
7031;SDS011;3557;48.880;8.328;2022-07-10T14:08:24;2.22;;;1.30;;
7031;SDS011;3557;48.880;8.328;2022-07-10T14:10:51;3.15;;;1.35;;
7031;SDS011;3557;48.880;8.328;2022-07-10T14:13:19;2.15;;;1.10;;
7031;SDS011;3557;48.880;8.328;2022-07-10T14:15:46;1.33;;;1.20;;
7031;SDS011;3557;48.880;8.328;2022-07-10T14:18:14;3.80;;;1.23;;
7031;SDS011;3557;48.880;8.328;2022-07-10T14:20:59;1.30;;;1.02;;
7031;SDS011;3557;48.880;8.328;2022-07-10T14:23:30;2.40;;;1.35;;
7031;SDS011;3557;48.880;8.328;2022-07-10T14:25:57;2.13;;;1.17;;
7031;SDS011;3557;48.880;8.328;2022-07-10T14:28:25;1.65;;;1.20;;
7031;SDS011;3557;48.880;8.328;2022-07-10T14:30:52;2.33;;;1.20;;
7031;SDS011;3557;48.880;8.328;2022-07-10T14:33:21;1.92;;;1.20;;
7031;SDS011;3557;48.880;8.328;2022-07-10T14:35:48;2.13;;;1.45;;
7031;SDS011;3557;48.880;8.328;2022-07-10T14:38:15;1.85;;;1.20;;
7031;SDS011;3557;48.880;8.328;2022-07-10T14:40:43;2.10;;;1.30;;
7031;SDS011;3557;48.880;8.328;2022-07-10T14:43:10;1.30;;;1.20;;
7031;SDS011;3557;48.880;8.328;2022-07-10T14:45:37;2.65;;;1.30;;
7031;SDS011;3557;48.880;8.328;2022-07-10T14:48:04;3.70;;;1.55;;
7031;SDS011;3557;48.880;8.328;2022-07-10T14:50:34;2.63;;;1.30;;
7031;SDS011;3557;48.880;8.328;2022-07-10T14:53:01;2.53;;;1.30;;
7031;SDS011;3557;48.880;8.328;2022-07-10T14:55:28;2.53;;;1.17;;
7031;SDS011;3557;48.880;8.328;2022-07-10T14:57:56;2.17;;;1.40;;
7031;SDS011;3557;48.880;8.328;2022-07-10T15:00:23;2.65;;;1.48;;
7031;SDS011;3557;48.880;8.328;2022-07-10T15:02:50;2.25;;;1.42;;
7031;SDS011;3557;48.880;8.328;2022-07-10T15:05:17;1.48;;;1.02;;
7031;SDS011;3557;48.880;8.328;2022-07-10T15:07:45;3.55;;;1.70;;
7031;SDS011;3557;48.880;8.328;2022-07-10T15:10:13;2.33;;;1.80;;
7031;SDS011;3557;48.880;8.328;2022-07-10T15:12:41;1.30;;;1.20;;
7031;SDS011;3557;48.880;8.328;2022-07-10T15:15:09;3.50;;;1.60;;
7031;SDS011;3557;48.880;8.328;2022-07-10T15:17:36;3.05;;;1.88;;
7031;SDS011;3557;48.880;8.328;2022-07-10T15:20:04;3.47;;;2.30;;
7031;SDS011;3557;48.880;8.328;2022-07-10T15:22:32;3.45;;;1.83;;
7031;SDS011;3557;48.880;8.328;2022-07-10T15:25:01;3.88;;;2.05;;
7031;SDS011;3557;48.880;8.328;2022-07-10T15:27:28;2.05;;;1.40;;
7031;SDS011;3557;48.880;8.328;2022-07-10T15:29:56;2.05;;;1.55;;
7031;SDS011;3557;48.880;8.328;2022-07-10T15:32:23;2.30;;;1.38;;
7031;SDS011;3557;48.880;8.328;2022-07-10T15:34:50;3.67;;;1.30;;
7031;SDS011;3557;48.880;8.328;2022-07-10T15:37:18;2.20;;;1.35;;
7031;SDS011;3557;48.880;8.328;2022-07-10T15:39:46;1.67;;;1.33;;
7031;SDS011;3557;48.880;8.328;2022-07-10T15:42:14;2.67;;;1.58;;